sensor_id;sensor_type;location;lat;lon;timestamp;pressure;altitude;pressure_sealevel;temperature;humidity
1371;BME280;14306;49.942;11.570;2023-05-20T13:08:47;97576.91;;;28.32;35.08
1371;BME280;14306;49.942;11.570;2023-05-20T13:11:14;97563.91;;;28.22;35.27
1371;BME280;14306;49.942;11.570;2023-05-20T13:13:42;97548.56;;;27.63;35.79
1371;BME280;14306;49.942;11.570;2023-05-20T13:16:10;97551.66;;;27.28;36.76
1371;BME280;14306;49.942;11.570;2023-05-20T13:18:39;97527.41;;;26.71;37.81
1371;BME280;14306;49.942;11.570;2023-05-20T13:21:07;97540.59;;;27.14;37.27
1371;BME280;14306;49.942;11.570;2023-05-20T13:23:35;97545.75;;;27.16;36.25
1371;BME280;14306;49.942;11.570;2023-05-20T13:26:05;97545.84;;;27.56;35.66
1371;BME280;14306;49.942;11.570;2023-05-20T13:28:34;97557.84;;;27.94;34.53
1371;BME280;14306;49.942;11.570;2023-05-20T13:31:04;97543.75;;;27.23;35.60
1371;BME280;14306;49.942;11.570;2023-05-20T13:33:32;97539.63;;;27.42;36.24
1371;BME280;14306;49.942;11.570;2023-05-20T13:36:00;97534.63;;;27.67;35.75
1371;BME280;14306;49.942;11.570;2023-05-20T13:38:28;97535.38;;;27.20;37.22
1371;BME280;14306;49.942;11.570;2023-05-20T13:40:57;97547.25;;;27.31;36.90
1371;BME280;14306;49.942;11.570;2023-05-20T13:43:27;97517.75;;;26.89;37.89
1371;BME280;14306;49.942;11.570;2023-05-20T13:45:56;97524.03;;;26.97;37.64
1371;BME280;14306;49.942;11.570;2023-05-20T13:48:24;97535.00;;;27.69;36.26
1371;BME280;14306;49.942;11.570;2023-05-20T13:50:52;97523.38;;;27.77;35.99
1371;BME280;14306;49.942;11.570;2023-05-20T13:53:20;97495.19;;;27.72;35.77
1371;BME280;14306;49.942;11.570;2023-05-20T13:55:49;97537.09;;;27.98;36.35
1371;BME280;14306;49.942;11.570;2023-05-20T13:58:17;97523.63;;;27.93;36.19
1371;BME280;14306;49.942;11.570;2023-05-20T14:00:47;97534.78;;;28.27;35.09
1371;BME280;14306;49.942;11.570;2023-05-20T14:03:15;97524.38;;;27.97;35.23
1371;BME280;14306;49.942;11.570;2023-05-20T14:05:44;97508.13;;;28.26;35.19
1371;BME280;14306;49.942;11.570;2023-05-20T14:08:12;97542.72;;;28.62;34.79
1371;BME280;14306;49.942;11.570;2023-05-20T14:10:40;97523.13;;;28.35;35.17
1371;BME280;14306;49.942;11.570;2023-05-20T14:13:08;97493.97;;;27.32;36.59
1371;BME280;14306;49.942;11.570;2023-05-20T14:15:36;97528.38;;;28.30;35.30
1371;BME280;14306;49.942;11.570;2023-05-20T14:18:06;97507.03;;;27.79;35.84
1371;BME280;14306;49.942;11.570;2023-05-20T14:20:34;97483.75;;;27.63;36.25
1371;BME280;14306;49.942;11.570;2023-05-20T14:23:03;97496.09;;;27.14;36.65
1371;BME280;14306;49.942;11.570;2023-05-20T14:25:31;97494.28;;;27.41;36.69
1371;BME280;14306;49.942;11.570;2023-05-20T14:28:00;97490.63;;;27.51;36.52
1371;BME280;14306;49.942;11.570;2023-05-20T14:30:27;97471.44;;;27.13;37.06
1371;BME280;14306;49.942;11.570;2023-05-20T14:32:55;97486.59;;;27.56;36.84
1371;BME280;14306;49.942;11.570;2023-05-20T14:35:25;97485.03;;;27.92;36.07
1371;BME280;14306;49.942;11.570;2023-05-20T14:37:54;97478.41;;;27.79;36.60
1371;BME280;14306;49.942;11.570;2023-05-20T14:40:22;97481.69;;;28.07;36.04
1371;BME280;14306;49.942;11.570;2023-05-20T14:42:50;97472.44;;;27.77;35.95
1371;BME280;14306;49.942;11.570;2023-05-20T14:45:18;97475.41;;;28.00;35.14
1371;BME280;14306;49.942;11.570;2023-05-20T14:47:47;97484.63;;;28.57;33.97
1371;BME280;14306;49.942;11.570;2023-05-20T14:50:15;97463.59;;;27.89;35.07
1371;BME280;14306;49.942;11.570;2023-05-20T14:52:45;97447.00;;;27.38;36.00
1371;BME280;14306;49.942;11.570;2023-05-20T14:55:13;97470.13;;;28.09;34.86
1371;BME280;14306;49.942;11.570;2023-05-20T14:57:42;97467.47;;;28.28;34.17
1371;BME280;14306;49.942;11.570;2023-05-20T15:00:11;97461.28;;;27.80;35.20
1371;BME280;14306;49.942;11.570;2023-05-20T15:02:39;97457.91;;;27.18;36.40
1371;BME280;14306;49.942;11.570;2023-05-20T15:05:08;97454.66;;;27.27;36.10
1371;BME280;14306;49.942;11.570;2023-05-20T15:07:37;97451.56;;;27.18;36.71
1371;BME280;14306;49.942;11.570;2023-05-20T15:10:08;97443.22;;;27.58;35.50
1371;BME280;14306;49.942;11.570;2023-05-20T15:12:36;97464.91;;;27.77;35.49
1371;BME280;14306;49.942;11.570;2023-05-20T15:15:05;97466.38;;;27.89;35.06
1371;BME280;14306;49.942;11.570;2023-05-20T15:17:33;97463.91;;;27.98;35.28
1371;BME280;14306;49.942;11.570;2023-05-20T15:20:02;97453.94;;;27.60;35.33
1371;BME280;14306;49.942;11.570;2023-05-20T15:22:31;97441.25;;;27.59;35.73
1371;BME280;14306;49.942;11.570;2023-05-20T15:24:59;97425.06;;;26.52;37.10
1371;BME280;14306;49.942;11.570;2023-05-20T15:27:29;97441.50;;;27.34;35.99
1371;BME280;14306;49.942;11.570;2023-05-20T15:29:57;97434.88;;;26.67;36.52
1371;BME280;14306;49.942;11.570;2023-05-20T15:32:25;97434.97;;;27.04;36.39
1371;BME280;14306;49.942;11.570;2023-05-20T15:34:53;97433.16;;;27.31;36.07
1371;BME280;14306;49.942;11.570;2023-05-20T15:37:21;97438.19;;;27.46;35.56
1371;BME280;14306;49.942;11.570;2023-05-20T15:39:49;97424.94;;;27.17;36.12
1371;BME280;14306;49.942;11.570;2023-05-20T15:42:18;97432.69;;;28.10;34.43
1371;BME280;14306;49.942;11.570;2023-05-20T15:44:48;97409.56;;;27.83;35.10
1371;BME280;14306;49.942;11.570;2023-05-20T15:47:16;97421.06;;;27.48;35.98
1371;BME280;14306;49.942;11.570;2023-05-20T15:49:45;97430.19;;;27.52;36.19
1371;BME280;14306;49.942;11.570;2023-05-20T15:52:13;97416.09;;;27.29;36.40
1371;BME280;14306;49.942;11.570;2023-05-20T15:54:41;97432.13;;;27.92;35.51
1371;BME280;14306;49.942;11.570;2023-05-20T15:57:10;97412.72;;;27.04;36.29
1371;BME280;14306;49.942;11.570;2023-05-20T15:59:38;97399.84;;;26.80;36.33
1371;BME280;14306;49.942;11.570;2023-05-20T16:02:07;97410.34;;;27.02;36.25
1371;BME280;14306;49.942;11.570;2023-05-20T16:04:36;97396.22;;;26.25;37.67
1371;BME280;14306;49.942;11.570;2023-05-20T16:07:04;97400.38;;;26.57;37.71
1371;BME280;14306;49.942;11.570;2023-05-20T16:09:32;97387.53;;;26.23;38.35
1371;BME280;14306;49.942;11.570;2023-05-20T16:12:01;97400.59;;;26.26;38.60
1371;BME280;14306;49.942;11.570;2023-05-20T16:14:30;97399.19;;;26.58;38.06
1371;BME280;14306;49.942;11.570;2023-05-20T16:16:59;97399.72;;;26.36;38.10
1371;BME280;14306;49.942;11.570;2023-05-20T16:19:29;97407.47;;;26.69;37.89
1371;BME280;14306;49.942;11.570;2023-05-20T16:21:58;97394.16;;;26.94;36.58
1371;BME280;14306;49.942;11.570;2023-05-20T16:24:27;97399.72;;;26.94;36.96
1371;BME280;14306;49.942;11.570;2023-05-20T16:26:55;97398.06;;;26.49;37.76
1371;BME280;14306;49.942;11.570;2023-05-20T16:29:23;97372.75;;;25.60;38.94
1371;BME280;14306;49.942;11.570;2023-05-20T16:31:52;97410.84;;;26.39;38.01
1371;BME280;14306;49.942;11.570;2023-05-20T16:34:21;97406.78;;;26.51;37.60
1371;BME280;14306;49.942;11.570;2023-05-20T16:36:50;97409.19;;;26.45;37.95
1371;BME280;14306;49.942;11.570;2023-05-20T16:39:19;97413.00;;;26.72;37.52
1371;BME280;14306;49.942;11.570;2023-05-20T16:41:47;97419.06;;;27.48;36.32
1371;BME280;14306;49.942;11.570;2023-05-20T16:44:15;97417.25;;;26.87;37.24
1371;BME280;14306;49.942;11.570;2023-05-20T16:46:44;97419.81;;;27.12;36.59
1371;BME280;14306;49.942;11.570;2023-05-20T16:49:12;97412.28;;;26.65;37.41
1371;BME280;14306;49.942;11.570;2023-05-20T16:51:41;97415.50;;;26.60;37.94
1371;BME280;14306;49.942;11.570;2023-05-20T16:54:11;97396.53;;;26.41;38.26
1371;BME280;14306;49.942;11.570;2023-05-20T16:56:39;97435.44;;;26.95;37.30
1371;BME280;14306;49.942;11.570;2023-05-20T16:59:07;97425.22;;;26.85;38.03
1371;BME280;14306;49.942;11.570;2023-05-20T17:01:42;97413.53;;;26.50;37.95
1371;BME280;14306;49.942;11.570;2023-05-20T17:04:14;97410.16;;;26.21;38.81
1371;BME280;14306;49.942;11.570;2023-05-20T17:06:43;97408.97;;;26.19;39.34
1371;BME280;14306;49.942;11.570;2023-05-20T17:09:12;97409.47;;;25.92;39.47
1371;BME280;14306;49.942;11.570;2023-05-20T17:11:42;97404.44;;;25.59;40.51
1371;BME280;14306;49.942;11.570;2023-05-20T17:14:13;97413.25;;;25.37;40.92
1371;BME280;14306;49.942;11.570;2023-05-20T17:16:41;97428.69;;;25.48;40.85
1371;BME280;14306;49.942;11.570;2023-05-20T17:19:10;97426.69;;;25.52;40.85
1371;BME280;14306;49.942;11.570;2023-05-20T17:21:43;97415.25;;;25.12;41.72
1371;BME280;14306;49.942;11.570;2023-05-20T17:24:15;97433.09;;;25.00;41.72
1371;BME280;14306;49.942;11.570;2023-05-20T17:26:44;97426.34;;;24.91;42.60
1371;BME280;14306;49.942;11.570;2023-05-20T17:29:12;97444.94;;;25.25;41.82
1371;BME280;14306;49.942;11.570;2023-05-20T17:31:42;97439.03;;;24.92;42.58
1371;BME280;14306;49.942;11.570;2023-05-20T17:34:13;97434.22;;;24.61;42.90
1371;BME280;14306;49.942;11.570;2023-05-20T17:36:41;97433.88;;;24.97;41.28
1371;BME280;14306;49.942;11.570;2023-05-20T17:39:09;97445.38;;;24.82;41.10
1371;BME280;14306;49.942;11.570;2023-05-20T17:41:40;97442.59;;;24.78;40.86
1371;BME280;14306;49.942;11.570;2023-05-20T17:44:09;97430.66;;;24.53;40.99
1371;BME280;14306;49.942;11.570;2023-05-20T17:46:37;97444.91;;;24.41;41.79
1371;BME280;14306;49.942;11.570;2023-05-20T17:49:06;97449.25;;;24.53;41.76
1371;BME280;14306;49.942;11.570;2023-05-20T17:51:34;97436.63;;;24.59;41.09
1371;BME280;14306;49.942;11.570;2023-05-20T17:54:03;97444.53;;;24.53;41.55
1371;BME280;14306;49.942;11.570;2023-05-20T17:56:32;97435.31;;;24.11;42.77
1371;BME280;14306;49.942;11.570;2023-05-20T17:59:02;97435.75;;;24.13;42.41
1371;BME280;14306;49.942;11.570;2023-05-20T18:01:30;97422.13;;;23.83;43.08
1371;BME280;14306;49.942;11.570;2023-05-20T18:03:59;97440.41;;;23.95;43.49
1371;BME280;14306;49.942;11.570;2023-05-20T18:06:31;97425.69;;;23.77;43.79
1371;BME280;14306;49.942;11.570;2023-05-20T18:09:02;97445.94;;;23.98;43.48
1371;BME280;14306;49.942;11.570;2023-05-20T18:11:32;97438.50;;;24.16;42.89
1371;BME280;14306;49.942;11.570;2023-05-20T18:14:02;97451.47;;;23.98;43.63
1371;BME280;14306;49.942;11.570;2023-05-20T18:16:30;97438.75;;;23.80;43.96
1371;BME280;14306;49.942;11.570;2023-05-20T18:18:59;97440.34;;;23.88;43.94
1371;BME280;14306;49.942;11.570;2023-05-20T18:21:29;97445.09;;;23.84;43.99
1371;BME280;14306;49.942;11.570;2023-05-20T18:23:57;97442.09;;;23.42;45.20
1371;BME280;14306;49.942;11.570;2023-05-20T18:26:26;97424.59;;;23.24;45.48
1371;BME280;14306;49.942;11.570;2023-05-20T18:28:54;97426.78;;;23.62;44.84
1371;BME280;14306;49.942;11.570;2023-05-20T18:31:24;97428.28;;;23.42;45.61
1371;BME280;14306;49.942;11.570;2023-05-20T18:33:52;97422.13;;;23.12;45.80
1371;BME280;14306;49.942;11.570;2023-05-20T18:36:21;97427.84;;;22.86;46.67
1371;BME280;14306;49.942;11.570;2023-05-20T18:38:49;97415.06;;;23.18;46.26
1371;BME280;14306;49.942;11.570;2023-05-20T18:41:18;97438.84;;;23.26;46.41
1371;BME280;14306;49.942;11.570;2023-05-20T18:43:50;97416.22;;;23.10;46.31
1371;BME280;14306;49.942;11.570;2023-05-20T18:46:19;97425.88;;;22.83;47.46
1371;BME280;14306;49.942;11.570;2023-05-20T18:48:49;97426.34;;;22.95;47.28
1371;BME280;14306;49.942;11.570;2023-05-20T18:51:17;97428.25;;;22.84;47.85
1371;BME280;14306;49.942;11.570;2023-05-20T18:53:46;97438.00;;;22.71;47.89
1371;BME280;14306;49.942;11.570;2023-05-20T18:56:15;97401.97;;;22.53;48.64
1371;BME280;14306;49.942;11.570;2023-05-20T18:58:43;97428.06;;;22.60;48.76
1371;BME280;14306;49.942;11.570;2023-05-20T19:01:12;97439.94;;;22.64;48.81
1371;BME280;14306;49.942;11.570;2023-05-20T19:03:40;97443.25;;;22.43;49.31
1371;BME280;14306;49.942;11.570;2023-05-20T19:06:12;97437.72;;;22.43;49.12
1371;BME280;14306;49.942;11.570;2023-05-20T19:08:42;97451.81;;;22.68;49.00
1371;BME280;14306;49.942;11.570;2023-05-20T19:11:11;97452.31;;;22.43;49.62
1371;BME280;14306;49.942;11.570;2023-05-20T19:13:40;97447.81;;;22.28;49.95
1371;BME280;14306;49.942;11.570;2023-05-20T19:16:08;97450.19;;;22.30;49.94
1371;BME280;14306;49.942;11.570;2023-05-20T19:18:37;97432.03;;;22.25;49.57
1371;BME280;14306;49.942;11.570;2023-05-20T19:21:05;97455.59;;;22.16;50.53
1371;BME280;14306;49.942;11.570;2023-05-20T19:23:34;97455.13;;;22.10;50.59
1371;BME280;14306;49.942;11.570;2023-05-20T19:26:03;97461.38;;;22.40;49.69
1371;BME280;14306;49.942;11.570;2023-05-20T19:28:31;97455.59;;;22.16;50.40
1371;BME280;14306;49.942;11.570;2023-05-20T19:31:00;97458.94;;;21.99;50.96
1371;BME280;14306;49.942;11.570;2023-05-20T19:33:28;97455.69;;;21.90;51.35
1371;BME280;14306;49.942;11.570;2023-05-20T19:35:57;97465.19;;;21.96;51.57
1371;BME280;14306;49.942;11.570;2023-05-20T19:38:25;97464.78;;;21.94;51.42
1371;BME280;14306;49.942;11.570;2023-05-20T19:40:55;97462.66;;;21.80;51.62
1371;BME280;14306;49.942;11.570;2023-05-20T19:43:23;97485.41;;;22.03;51.11
1371;BME280;14306;49.942;11.570;2023-05-20T19:45:52;97468.91;;;21.77;52.04
1371;BME280;14306;49.942;11.570;2023-05-20T19:48:20;97487.44;;;22.10;51.48
1371;BME280;14306;49.942;11.570;2023-05-20T19:50:49;97483.59;;;21.85;51.98
1371;BME280;14306;49.942;11.570;2023-05-20T19:55:49;97438.53;;;21.74;52.02
1371;BME280;14306;49.942;11.570;2023-05-20T19:58:43;97471.34;;;21.82;52.45
1371;BME280;14306;49.942;11.570;2023-05-20T20:01:11;97476.91;;;21.86;52.25
1371;BME280;14306;49.942;11.570;2023-05-20T20:03:40;97480.75;;;22.11;51.93
1371;BME280;14306;49.942;11.570;2023-05-20T20:06:08;97472.13;;;21.83;52.65
1371;BME280;14306;49.942;11.570;2023-05-20T20:08:37;97472.72;;;21.99;51.92
1371;BME280;14306;49.942;11.570;2023-05-20T20:11:06;97475.81;;;21.94;52.22
1371;BME280;14306;49.942;11.570;2023-05-20T20:13:34;97470.03;;;22.02;52.32
1371;BME280;14306;49.942;11.570;2023-05-20T20:16:04;97470.34;;;21.97;52.52
1371;BME280;14306;49.942;11.570;2023-05-20T20:18:33;97468.19;;;21.84;53.19
1371;BME280;14306;49.942;11.570;2023-05-20T20:21:01;97470.88;;;22.10;52.35
1371;BME280;14306;49.942;11.570;2023-05-20T20:23:31;97459.66;;;21.96;52.54
1371;BME280;14306;49.942;11.570;2023-05-20T20:26:03;97465.38;;;22.10;52.16
1371;BME280;14306;49.942;11.570;2023-05-20T20:28:31;97470.97;;;22.17;52.33
1371;BME280;14306;49.942;11.570;2023-05-20T20:31:00;97471.72;;;22.14;52.39
1371;BME280;14306;49.942;11.570;2023-05-20T20:33:31;97454.66;;;21.72;53.15
1371;BME280;14306;49.942;11.570;2023-05-20T20:35:59;97471.16;;;22.01;52.55
1371;BME280;14306;49.942;11.570;2023-05-20T20:38:27;97464.19;;;21.78;53.35
1371;BME280;14306;49.942;11.570;2023-05-20T20:40:56;97470.66;;;21.89;53.18
1371;BME280;14306;49.942;11.570;2023-05-20T20:43:24;97469.97;;;21.99;52.52
1371;BME280;14306;49.942;11.570;2023-05-20T20:45:55;97465.78;;;21.79;53.21
1371;BME280;14306;49.942;11.570;2023-05-20T20:48:23;97475.03;;;21.93;53.17
1371;BME280;14306;49.942;11.570;2023-05-20T20:50:54;97472.34;;;22.00;53.11
1371;BME280;14306;49.942;11.570;2023-05-20T20:53:23;97471.38;;;21.56;54.16
1371;BME280;14306;49.942;11.570;2023-05-20T20:55:52;97463.13;;;21.60;54.36
1371;BME280;14306;49.942;11.570;2023-05-20T20:58:20;97467.91;;;21.63;54.03
1371;BME280;14306;49.942;11.570;2023-05-20T21:00:48;97468.16;;;21.51;54.73
1371;BME280;14306;49.942;11.570;2023-05-20T21:03:16;97457.72;;;21.37;54.74
1371;BME280;14306;49.942;11.570;2023-05-20T21:05:44;97463.50;;;21.29;55.34
1371;BME280;14306;49.942;11.570;2023-05-20T21:08:15;97463.75;;;21.20;55.56
1371;BME280;14306;49.942;11.570;2023-05-20T21:10:43;97462.50;;;21.14;56.03
1371;BME280;14306;49.942;11.570;2023-05-20T21:13:11;97470.06;;;21.21;55.83
1371;BME280;14306;49.942;11.570;2023-05-20T21:15:39;97471.31;;;21.27;55.54
1371;BME280;14306;49.942;11.570;2023-05-20T21:18:08;97468.09;;;20.95;56.56
1371;BME280;14306;49.942;11.570;2023-05-20T21:20:37;97466.84;;;21.15;56.13
1371;BME280;14306;49.942;11.570;2023-05-20T21:23:05;97459.50;;;21.00;56.83
1371;BME280;14306;49.942;11.570;2023-05-20T21:25:34;97452.59;;;20.87;56.86
1371;BME280;14306;49.942;11.570;2023-05-20T21:28:03;97450.78;;;20.72;57.59
1371;BME280;14306;49.942;11.570;2023-05-20T21:30:31;97444.91;;;20.74;57.52
1371;BME280;14306;49.942;11.570;2023-05-20T21:33:00;97418.31;;;20.59;57.47
1371;BME280;14306;49.942;11.570;2023-05-20T21:35:28;97440.81;;;20.90;57.20
1371;BME280;14306;49.942;11.570;2023-05-20T21:37:56;97441.28;;;20.70;57.96
1371;BME280;14306;49.942;11.570;2023-05-20T21:40:25;97441.09;;;20.82;57.55
1371;BME280;14306;49.942;11.570;2023-05-20T21:42:54;97430.16;;;20.63;58.03
1371;BME280;14306;49.942;11.570;2023-05-20T21:45:22;97447.09;;;20.65;58.13
1371;BME280;14306;49.942;11.570;2023-05-20T21:47:52;97441.47;;;20.58;58.46
1371;BME280;14306;49.942;11.570;2023-05-20T21:50:20;97448.69;;;20.66;58.40
1371;BME280;14306;49.942;11.570;2023-05-20T21:52:49;97445.50;;;20.64;58.42
1371;BME280;14306;49.942;11.570;2023-05-20T21:55:17;97449.84;;;20.65;58.67
1371;BME280;14306;49.942;11.570;2023-05-20T21:57:49;97451.88;;;20.68;58.32
1371;BME280;14306;49.942;11.570;2023-05-20T22:00:18;97448.44;;;20.74;58.08
1371;BME280;14306;49.942;11.570;2023-05-20T22:02:47;97455.31;;;20.61;58.68
1371;BME280;14306;49.942;11.570;2023-05-20T22:05:16;97450.88;;;20.79;58.25
1371;BME280;14306;49.942;11.570;2023-05-20T22:07:45;97448.44;;;20.74;58.65
1371;BME280;14306;49.942;11.570;2023-05-20T22:10:14;97447.34;;;20.79;58.41
1371;BME280;14306;49.942;11.570;2023-05-20T22:12:43;97451.69;;;20.80;58.59
1371;BME280;14306;49.942;11.570;2023-05-20T22:15:12;97445.44;;;20.60;59.38
1371;BME280;14306;49.942;11.570;2023-05-20T22:17:42;97445.44;;;20.83;58.61
1371;BME280;14306;49.942;11.570;2023-05-20T22:20:13;97441.09;;;20.59;59.52
1371;BME280;14306;49.942;11.570;2023-05-20T22:22:41;97444.41;;;20.68;59.00
1371;BME280;14306;49.942;11.570;2023-05-20T22:25:09;97436.38;;;20.82;58.88
1371;BME280;14306;49.942;11.570;2023-05-20T22:27:38;97440.13;;;20.71;59.53
1371;BME280;14306;49.942;11.570;2023-05-20T22:30:09;97428.50;;;20.58;59.76
1371;BME280;14306;49.942;11.570;2023-05-20T22:32:38;97428.38;;;20.74;59.15
1371;BME280;14306;49.942;11.570;2023-05-20T22:35:08;97442.81;;;20.90;59.24
1371;BME280;14306;49.942;11.570;2023-05-20T22:37:39;97447.09;;;20.87;59.03
1371;BME280;14306;49.942;11.570;2023-05-20T22:40:08;97438.97;;;20.72;59.47
1371;BME280;14306;49.942;11.570;2023-05-20T22:42:36;97429.75;;;20.87;59.18
1371;BME280;14306;49.942;11.570;2023-05-20T22:45:06;97431.03;;;20.67;59.89
1371;BME280;14306;49.942;11.570;2023-05-20T22:47:34;97416.88;;;20.68;59.88
1371;BME280;14306;49.942;11.570;2023-05-20T22:50:03;97430.75;;;20.98;59.15
1371;BME280;14306;49.942;11.570;2023-05-20T22:52:32;97423.81;;;20.85;59.44
1371;BME280;14306;49.942;11.570;2023-05-20T22:55:02;97432.34;;;20.99;59.15
1371;BME280;14306;49.942;11.570;2023-05-20T22:57:33;97431.91;;;20.74;59.85
1371;BME280;14306;49.942;11.570;2023-05-20T23:00:03;97420.50;;;20.72;60.54
1371;BME280;14306;49.942;11.570;2023-05-20T23:02:33;97421.44;;;20.57;60.93
1371;BME280;14306;49.942;11.570;2023-05-20T23:05:01;97430.13;;;20.85;60.40
1371;BME280;14306;49.942;11.570;2023-05-20T23:07:31;97412.28;;;20.76;60.27
1371;BME280;14306;49.942;11.570;2023-05-20T23:10:00;97416.50;;;20.70;60.76
1371;BME280;14306;49.942;11.570;2023-05-20T23:12:28;97411.50;;;21.01;59.62
1371;BME280;14306;49.942;11.570;2023-05-20T23:14:57;97404.16;;;20.60;61.03
1371;BME280;14306;49.942;11.570;2023-05-20T23:17:25;97409.53;;;20.76;60.42
1371;BME280;14306;49.942;11.570;2023-05-20T23:19:53;97408.56;;;20.65;61.22
1371;BME280;14306;49.942;11.570;2023-05-20T23:22:21;97398.75;;;20.41;61.65
1371;BME280;14306;49.942;11.570;2023-05-20T23:24:49;97404.06;;;20.79;60.63
1371;BME280;14306;49.942;11.570;2023-05-20T23:27:19;97396.81;;;20.68;60.98
1371;BME280;14306;49.942;11.570;2023-05-20T23:29:47;97402.88;;;20.54;61.66
1371;BME280;14306;49.942;11.570;2023-05-20T23:32:15;97404.63;;;20.88;60.51
1371;BME280;14306;49.942;11.570;2023-05-20T23:34:44;97400.31;;;20.42;61.94
1371;BME280;14306;49.942;11.570;2023-05-20T23:37:13;97408.31;;;20.73;60.96
1371;BME280;14306;49.942;11.570;2023-05-20T23:39:41;97401.41;;;20.60;61.09
1371;BME280;14306;49.942;11.570;2023-05-20T23:42:09;97404.94;;;20.83;60.56
1371;BME280;14306;49.942;11.570;2023-05-20T23:44:39;97396.41;;;20.43;62.17
1371;BME280;14306;49.942;11.570;2023-05-20T23:47:07;97400.50;;;20.53;61.79
1371;BME280;14306;49.942;11.570;2023-05-20T23:49:35;97403.50;;;20.44;61.85
1371;BME280;14306;49.942;11.570;2023-05-20T23:52:04;97397.41;;;20.32;62.36
1371;BME280;14306;49.942;11.570;2023-05-20T23:54:32;97395.94;;;20.15;63.08
1371;BME280;14306;49.942;11.570;2023-05-20T23:57:01;97398.84;;;20.48;62.10
1371;BME280;14306;49.942;11.570;2023-05-20T23:59:29;97402.47;;;20.30;62.60
